sensor_id;sensor_type;location;lat;lon;timestamp;P1;durP1;ratioP1;P2;durP2;ratioP2
11123;SDS011;5616;42.692;23.312;2023-09-08T00:01:12;8.47;;;7.40;;
11123;SDS011;5616;42.692;23.312;2023-09-08T00:03:39;8.93;;;8.03;;
11123;SDS011;5616;42.692;23.312;2023-09-08T00:06:06;9.23;;;7.50;;
11123;SDS011;5616;42.692;23.312;2023-09-08T00:08:32;9.00;;;7.87;;
11123;SDS011;5616;42.692;23.312;2023-09-08T00:11:00;9.13;;;7.73;;
11123;SDS011;5616;42.692;23.312;2023-09-08T00:13:27;8.73;;;7.93;;
11123;SDS011;5616;42.692;23.312;2023-09-08T00:15:54;8.70;;;7.80;;
11123;SDS011;5616;42.692;23.312;2023-09-08T00:18:21;9.10;;;7.37;;
11123;SDS011;5616;42.692;23.312;2023-09-08T00:20:48;8.70;;;7.63;;
11123;SDS011;5616;42.692;23.312;2023-09-08T00:23:14;7.87;;;7.03;;
11123;SDS011;5616;42.692;23.312;2023-09-08T00:25:41;7.60;;;6.60;;
11123;SDS011;5616;42.692;23.312;2023-09-08T00:28:09;8.10;;;7.27;;
11123;SDS011;5616;42.692;23.312;2023-09-08T00:30:36;6.90;;;6.20;;
11123;SDS011;5616;42.692;23.312;2023-09-08T00:33:03;6.27;;;5.47;;
11123;SDS011;5616;42.692;23.312;2023-09-08T00:35:33;6.03;;;5.43;;
11123;SDS011;5616;42.692;23.312;2023-09-08T00:38:00;6.60;;;5.87;;
11123;SDS011;5616;42.692;23.312;2023-09-08T00:40:27;5.73;;;5.00;;
11123;SDS011;5616;42.692;23.312;2023-09-08T00:43:47;5.10;;;4.57;;
11123;SDS011;5616;42.692;23.312;2023-09-08T00:46:14;5.30;;;4.80;;
11123;SDS011;5616;42.692;23.312;2023-09-08T00:48:41;6.13;;;4.60;;
11123;SDS011;5616;42.692;23.312;2023-09-08T00:51:08;4.80;;;4.30;;
11123;SDS011;5616;42.692;23.312;2023-09-08T00:53:36;4.33;;;3.90;;
11123;SDS011;5616;42.692;23.312;2023-09-08T00:56:03;4.70;;;3.70;;
11123;SDS011;5616;42.692;23.312;2023-09-08T00:58:31;4.70;;;4.07;;
11123;SDS011;5616;42.692;23.312;2023-09-08T01:00:59;4.13;;;3.67;;
11123;SDS011;5616;42.692;23.312;2023-09-08T01:03:26;4.93;;;3.67;;
11123;SDS011;5616;42.692;23.312;2023-09-08T01:05:53;3.80;;;3.50;;
11123;SDS011;5616;42.692;23.312;2023-09-08T01:08:21;3.97;;;3.33;;
11123;SDS011;5616;42.692;23.312;2023-09-08T01:10:48;3.43;;;3.13;;
11123;SDS011;5616;42.692;23.312;2023-09-08T01:13:15;4.97;;;3.93;;
11123;SDS011;5616;42.692;23.312;2023-09-08T01:15:42;7.90;;;3.27;;
11123;SDS011;5616;42.692;23.312;2023-09-08T01:18:10;3.90;;;3.47;;
11123;SDS011;5616;42.692;23.312;2023-09-08T01:20:41;4.57;;;4.10;;
11123;SDS011;5616;42.692;23.312;2023-09-08T01:23:22;5.20;;;3.97;;
11123;SDS011;5616;42.692;23.312;2023-09-08T01:25:57;5.27;;;4.20;;
11123;SDS011;5616;42.692;23.312;2023-09-08T01:28:30;5.53;;;4.63;;
11123;SDS011;5616;42.692;23.312;2023-09-08T01:30:58;4.60;;;4.20;;
11123;SDS011;5616;42.692;23.312;2023-09-08T01:33:25;4.80;;;3.87;;
11123;SDS011;5616;42.692;23.312;2023-09-08T01:35:53;5.20;;;3.77;;
11123;SDS011;5616;42.692;23.312;2023-09-08T01:38:21;4.80;;;4.30;;
11123;SDS011;5616;42.692;23.312;2023-09-08T01:40:48;5.03;;;4.17;;
11123;SDS011;5616;42.692;23.312;2023-09-08T01:43:16;4.50;;;4.10;;
11123;SDS011;5616;42.692;23.312;2023-09-08T01:45:44;3.90;;;3.60;;
11123;SDS011;5616;42.692;23.312;2023-09-08T01:48:11;5.30;;;4.10;;
11123;SDS011;5616;42.692;23.312;2023-09-08T01:50:37;4.37;;;3.93;;
11123;SDS011;5616;42.692;23.312;2023-09-08T01:53:04;5.10;;;4.27;;
11123;SDS011;5616;42.692;23.312;2023-09-08T01:55:31;5.60;;;3.87;;
11123;SDS011;5616;42.692;23.312;2023-09-08T01:57:58;5.43;;;3.80;;
11123;SDS011;5616;42.692;23.312;2023-09-08T02:00:26;4.33;;;3.80;;
11123;SDS011;5616;42.692;23.312;2023-09-08T02:02:53;4.13;;;3.60;;
11123;SDS011;5616;42.692;23.312;2023-09-08T02:05:19;5.27;;;3.83;;
11123;SDS011;5616;42.692;23.312;2023-09-08T02:07:48;5.30;;;4.03;;
11123;SDS011;5616;42.692;23.312;2023-09-08T02:10:14;4.80;;;4.07;;
11123;SDS011;5616;42.692;23.312;2023-09-08T02:12:41;4.73;;;4.00;;
11123;SDS011;5616;42.692;23.312;2023-09-08T02:15:09;4.67;;;4.17;;
11123;SDS011;5616;42.692;23.312;2023-09-08T02:17:38;5.47;;;4.07;;
11123;SDS011;5616;42.692;23.312;2023-09-08T02:20:05;4.27;;;3.60;;
11123;SDS011;5616;42.692;23.312;2023-09-08T02:22:33;4.43;;;4.03;;
11123;SDS011;5616;42.692;23.312;2023-09-08T02:25:00;5.80;;;4.57;;
11123;SDS011;5616;42.692;23.312;2023-09-08T02:27:27;4.10;;;3.70;;
11123;SDS011;5616;42.692;23.312;2023-09-08T02:29:54;4.80;;;4.00;;
11123;SDS011;5616;42.692;23.312;2023-09-08T02:32:21;4.60;;;3.93;;
11123;SDS011;5616;42.692;23.312;2023-09-08T02:34:49;4.80;;;4.10;;
11123;SDS011;5616;42.692;23.312;2023-09-08T02:37:18;6.93;;;4.17;;
11123;SDS011;5616;42.692;23.312;2023-09-08T02:39:45;6.13;;;4.60;;
11123;SDS011;5616;42.692;23.312;2023-09-08T02:42:12;4.87;;;4.40;;
11123;SDS011;5616;42.692;23.312;2023-09-08T02:44:38;5.50;;;4.27;;
11123;SDS011;5616;42.692;23.312;2023-09-08T02:47:06;5.07;;;4.57;;
11123;SDS011;5616;42.692;23.312;2023-09-08T02:49:34;4.83;;;4.33;;
11123;SDS011;5616;42.692;23.312;2023-09-08T02:52:03;5.40;;;4.90;;
11123;SDS011;5616;42.692;23.312;2023-09-08T02:54:30;5.33;;;4.70;;
11123;SDS011;5616;42.692;23.312;2023-09-08T02:56:56;6.40;;;4.40;;
11123;SDS011;5616;42.692;23.312;2023-09-08T02:59:23;5.90;;;4.67;;
11123;SDS011;5616;42.692;23.312;2023-09-08T03:01:50;6.33;;;4.50;;
11123;SDS011;5616;42.692;23.312;2023-09-08T03:04:17;4.93;;;4.43;;
11123;SDS011;5616;42.692;23.312;2023-09-08T03:06:43;5.77;;;4.33;;
11123;SDS011;5616;42.692;23.312;2023-09-08T03:09:13;5.47;;;4.60;;
11123;SDS011;5616;42.692;23.312;2023-09-08T03:11:40;5.00;;;4.50;;
11123;SDS011;5616;42.692;23.312;2023-09-08T03:14:06;5.20;;;4.70;;
11123;SDS011;5616;42.692;23.312;2023-09-08T03:16:33;6.63;;;4.80;;
11123;SDS011;5616;42.692;23.312;2023-09-08T03:19:00;8.05;;;5.18;;
11123;SDS011;5616;42.692;23.312;2023-09-08T03:21:27;4.73;;;4.33;;
11123;SDS011;5616;42.692;23.312;2023-09-08T03:23:53;5.67;;;4.23;;
11123;SDS011;5616;42.692;23.312;2023-09-08T03:26:22;6.10;;;5.20;;
11123;SDS011;5616;42.692;23.312;2023-09-08T03:28:49;7.60;;;5.20;;
11123;SDS011;5616;42.692;23.312;2023-09-08T03:31:15;5.57;;;4.97;;
11123;SDS011;5616;42.692;23.312;2023-09-08T03:33:43;5.60;;;5.00;;
11123;SDS011;5616;42.692;23.312;2023-09-08T03:36:10;7.43;;;4.90;;
11123;SDS011;5616;42.692;23.312;2023-09-08T03:38:36;5.47;;;4.97;;
11123;SDS011;5616;42.692;23.312;2023-09-08T03:41:03;6.00;;;4.90;;
11123;SDS011;5616;42.692;23.312;2023-09-08T03:43:32;5.40;;;4.90;;
11123;SDS011;5616;42.692;23.312;2023-09-08T03:46:00;5.90;;;5.30;;
11123;SDS011;5616;42.692;23.312;2023-09-08T03:48:27;5.40;;;4.90;;
11123;SDS011;5616;42.692;23.312;2023-09-08T03:50:53;6.53;;;5.50;;
11123;SDS011;5616;42.692;23.312;2023-09-08T03:53:20;6.80;;;5.53;;
11123;SDS011;5616;42.692;23.312;2023-09-08T03:55:47;5.90;;;4.97;;
11123;SDS011;5616;42.692;23.312;2023-09-08T03:58:14;5.27;;;4.77;;
11123;SDS011;5616;42.692;23.312;2023-09-08T04:00:43;5.53;;;5.03;;
11123;SDS011;5616;42.692;23.312;2023-09-08T04:03:10;6.33;;;5.37;;
11123;SDS011;5616;42.692;23.312;2023-09-08T04:05:38;5.80;;;5.00;;
11123;SDS011;5616;42.692;23.312;2023-09-08T04:08:05;6.30;;;5.33;;
11123;SDS011;5616;42.692;23.312;2023-09-08T04:10:32;6.30;;;5.00;;
11123;SDS011;5616;42.692;23.312;2023-09-08T04:12:59;6.60;;;4.90;;
11123;SDS011;5616;42.692;23.312;2023-09-08T04:15:26;6.07;;;5.43;;
11123;SDS011;5616;42.692;23.312;2023-09-08T04:17:54;6.10;;;5.30;;
11123;SDS011;5616;42.692;23.312;2023-09-08T04:20:22;6.13;;;5.53;;
11123;SDS011;5616;42.692;23.312;2023-09-08T04:22:49;5.43;;;4.93;;
11123;SDS011;5616;42.692;23.312;2023-09-08T04:25:16;9.00;;;5.53;;
11123;SDS011;5616;42.692;23.312;2023-09-08T04:27:43;6.23;;;5.03;;
11123;SDS011;5616;42.692;23.312;2023-09-08T04:30:11;6.50;;;5.90;;
11123;SDS011;5616;42.692;23.312;2023-09-08T04:32:39;6.33;;;5.47;;
11123;SDS011;5616;42.692;23.312;2023-09-08T04:35:08;5.90;;;5.30;;
11123;SDS011;5616;42.692;23.312;2023-09-08T04:37:35;7.30;;;6.27;;
11123;SDS011;5616;42.692;23.312;2023-09-08T04:40:03;6.00;;;5.37;;
11123;SDS011;5616;42.692;23.312;2023-09-08T04:42:30;6.60;;;5.20;;
11123;SDS011;5616;42.692;23.312;2023-09-08T04:44:59;5.63;;;4.90;;
11123;SDS011;5616;42.692;23.312;2023-09-08T04:47:27;5.80;;;5.17;;
11123;SDS011;5616;42.692;23.312;2023-09-08T04:49:54;6.37;;;5.73;;
11123;SDS011;5616;42.692;23.312;2023-09-08T04:52:22;6.30;;;5.10;;
11123;SDS011;5616;42.692;23.312;2023-09-08T04:54:49;6.13;;;5.43;;
11123;SDS011;5616;42.692;23.312;2023-09-08T04:57:16;6.70;;;5.97;;
11123;SDS011;5616;42.692;23.312;2023-09-08T04:59:45;5.93;;;5.27;;
11123;SDS011;5616;42.692;23.312;2023-09-08T05:02:12;7.27;;;5.50;;
11123;SDS011;5616;42.692;23.312;2023-09-08T05:04:39;5.90;;;5.30;;
11123;SDS011;5616;42.692;23.312;2023-09-08T05:07:05;5.77;;;5.00;;
11123;SDS011;5616;42.692;23.312;2023-09-08T05:09:34;7.33;;;5.87;;
11123;SDS011;5616;42.692;23.312;2023-09-08T05:12:01;9.53;;;7.40;;
11123;SDS011;5616;42.692;23.312;2023-09-08T05:14:28;9.43;;;7.03;;
11123;SDS011;5616;42.692;23.312;2023-09-08T05:16:55;10.23;;;7.57;;
11123;SDS011;5616;42.692;23.312;2023-09-08T05:19:24;17.17;;;9.30;;
11123;SDS011;5616;42.692;23.312;2023-09-08T05:21:52;16.23;;;9.77;;
11123;SDS011;5616;42.692;23.312;2023-09-08T05:24:20;10.30;;;6.50;;
11123;SDS011;5616;42.692;23.312;2023-09-08T05:26:48;8.97;;;6.30;;
11123;SDS011;5616;42.692;23.312;2023-09-08T05:29:15;15.60;;;10.03;;
11123;SDS011;5616;42.692;23.312;2023-09-08T05:31:43;9.23;;;5.93;;
11123;SDS011;5616;42.692;23.312;2023-09-08T05:34:10;7.20;;;5.07;;
11123;SDS011;5616;42.692;23.312;2023-09-08T05:36:37;5.83;;;4.40;;
11123;SDS011;5616;42.692;23.312;2023-09-08T05:39:06;5.27;;;4.50;;
11123;SDS011;5616;42.692;23.312;2023-09-08T05:41:33;5.07;;;4.20;;
11123;SDS011;5616;42.692;23.312;2023-09-08T05:44:02;5.17;;;4.50;;
11123;SDS011;5616;42.692;23.312;2023-09-08T05:46:29;5.67;;;4.90;;
11123;SDS011;5616;42.692;23.312;2023-09-08T05:48:56;4.30;;;3.90;;
11123;SDS011;5616;42.692;23.312;2023-09-08T05:51:24;4.53;;;4.03;;
11123;SDS011;5616;42.692;23.312;2023-09-08T05:53:52;6.23;;;4.37;;
11123;SDS011;5616;42.692;23.312;2023-09-08T05:56:19;5.07;;;4.10;;
11123;SDS011;5616;42.692;23.312;2023-09-08T05:58:46;4.30;;;3.90;;
11123;SDS011;5616;42.692;23.312;2023-09-08T06:01:14;5.93;;;4.47;;
11123;SDS011;5616;42.692;23.312;2023-09-08T06:03:42;5.17;;;4.20;;
11123;SDS011;5616;42.692;23.312;2023-09-08T06:06:09;7.37;;;4.70;;
11123;SDS011;5616;42.692;23.312;2023-09-08T06:08:35;4.27;;;3.53;;
11123;SDS011;5616;42.692;23.312;2023-09-08T06:11:03;4.67;;;3.70;;
11123;SDS011;5616;42.692;23.312;2023-09-08T06:13:30;4.03;;;3.40;;
11123;SDS011;5616;42.692;23.312;2023-09-08T06:15:57;3.60;;;3.27;;
11123;SDS011;5616;42.692;23.312;2023-09-08T06:18:27;4.17;;;3.33;;
11123;SDS011;5616;42.692;23.312;2023-09-08T06:20:56;4.33;;;3.60;;
11123;SDS011;5616;42.692;23.312;2023-09-08T06:23:23;4.43;;;3.20;;
11123;SDS011;5616;42.692;23.312;2023-09-08T06:25:51;5.23;;;3.70;;
11123;SDS011;5616;42.692;23.312;2023-09-08T06:28:24;6.87;;;3.70;;
11123;SDS011;5616;42.692;23.312;2023-09-08T06:30:51;4.80;;;3.27;;
11123;SDS011;5616;42.692;23.312;2023-09-08T06:33:18;3.03;;;2.70;;
11123;SDS011;5616;42.692;23.312;2023-09-08T06:35:46;5.53;;;3.10;;
11123;SDS011;5616;42.692;23.312;2023-09-08T06:38:13;3.27;;;2.97;;
11123;SDS011;5616;42.692;23.312;2023-09-08T06:40:40;5.03;;;2.90;;
11123;SDS011;5616;42.692;23.312;2023-09-08T06:43:07;3.43;;;2.87;;
11123;SDS011;5616;42.692;23.312;2023-09-08T06:45:53;2.97;;;2.50;;
11123;SDS011;5616;42.692;23.312;2023-09-08T06:48:22;3.43;;;2.43;;
11123;SDS011;5616;42.692;23.312;2023-09-08T06:50:52;2.73;;;2.50;;
11123;SDS011;5616;42.692;23.312;2023-09-08T06:53:20;3.47;;;2.70;;
11123;SDS011;5616;42.692;23.312;2023-09-08T06:55:47;3.23;;;2.70;;
11123;SDS011;5616;42.692;23.312;2023-09-08T06:58:13;3.47;;;2.67;;
11123;SDS011;5616;42.692;23.312;2023-09-08T07:00:41;3.07;;;2.70;;
11123;SDS011;5616;42.692;23.312;2023-09-08T07:03:08;3.47;;;2.70;;
11123;SDS011;5616;42.692;23.312;2023-09-08T07:05:35;3.30;;;2.47;;
11123;SDS011;5616;42.692;23.312;2023-09-08T07:08:08;2.83;;;2.53;;
11123;SDS011;5616;42.692;23.312;2023-09-08T07:10:38;2.63;;;2.40;;
11123;SDS011;5616;42.692;23.312;2023-09-08T07:13:05;7.90;;;4.75;;
11123;SDS011;5616;42.692;23.312;2023-09-08T07:15:32;3.85;;;2.83;;
11123;SDS011;5616;42.692;23.312;2023-09-08T07:17:59;3.00;;;2.35;;
11123;SDS011;5616;42.692;23.312;2023-09-08T07:20:25;4.80;;;3.63;;
11123;SDS011;5616;42.692;23.312;2023-09-08T07:22:52;6.13;;;2.50;;
11123;SDS011;5616;42.692;23.312;2023-09-08T07:25:21;3.30;;;2.60;;
11123;SDS011;5616;42.692;23.312;2023-09-08T07:27:47;3.42;;;2.25;;
11123;SDS011;5616;42.692;23.312;2023-09-08T07:30:18;2.57;;;2.23;;
11123;SDS011;5616;42.692;23.312;2023-09-08T07:32:45;6.28;;;4.25;;
11123;SDS011;5616;42.692;23.312;2023-09-08T07:35:12;5.80;;;3.35;;
11123;SDS011;5616;42.692;23.312;2023-09-08T07:37:43;4.88;;;3.25;;
11123;SDS011;5616;42.692;23.312;2023-09-08T07:40:10;3.95;;;2.97;;
11123;SDS011;5616;42.692;23.312;2023-09-08T07:42:39;3.15;;;2.40;;
11123;SDS011;5616;42.692;23.312;2023-09-08T07:45:06;3.83;;;2.67;;
11123;SDS011;5616;42.692;23.312;2023-09-08T07:47:35;2.60;;;2.33;;
11123;SDS011;5616;42.692;23.312;2023-09-08T07:50:16;2.72;;;2.50;;
11123;SDS011;5616;42.692;23.312;2023-09-08T07:52:43;2.50;;;2.28;;
11123;SDS011;5616;42.692;23.312;2023-09-08T07:55:10;4.35;;;2.60;;
11123;SDS011;5616;42.692;23.312;2023-09-08T07:57:38;3.58;;;2.22;;
11123;SDS011;5616;42.692;23.312;2023-09-08T08:00:06;2.33;;;2.13;;
11123;SDS011;5616;42.692;23.312;2023-09-08T08:02:37;3.60;;;2.30;;
11123;SDS011;5616;42.692;23.312;2023-09-08T08:05:04;2.95;;;2.40;;
11123;SDS011;5616;42.692;23.312;2023-09-08T08:07:32;2.60;;;2.30;;
11123;SDS011;5616;42.692;23.312;2023-09-08T08:09:59;2.50;;;2.08;;
11123;SDS011;5616;42.692;23.312;2023-09-08T08:12:25;2.80;;;2.50;;
11123;SDS011;5616;42.692;23.312;2023-09-08T08:14:54;3.28;;;2.47;;
11123;SDS011;5616;42.692;23.312;2023-09-08T08:17:21;2.70;;;2.22;;
11123;SDS011;5616;42.692;23.312;2023-09-08T08:19:48;2.60;;;2.40;;
11123;SDS011;5616;42.692;23.312;2023-09-08T08:22:14;2.45;;;2.25;;
11123;SDS011;5616;42.692;23.312;2023-09-08T08:24:41;2.45;;;2.25;;
11123;SDS011;5616;42.692;23.312;2023-09-08T08:27:08;2.90;;;2.53;;
11123;SDS011;5616;42.692;23.312;2023-09-08T08:29:35;2.60;;;2.40;;
11123;SDS011;5616;42.692;23.312;2023-09-08T08:32:03;3.13;;;2.53;;
11123;SDS011;5616;42.692;23.312;2023-09-08T08:34:30;3.45;;;2.72;;
11123;SDS011;5616;42.692;23.312;2023-09-08T08:36:57;5.72;;;3.15;;
11123;SDS011;5616;42.692;23.312;2023-09-08T08:39:24;17.70;;;8.57;;
11123;SDS011;5616;42.692;23.312;2023-09-08T08:41:50;5.38;;;2.97;;
11123;SDS011;5616;42.692;23.312;2023-09-08T08:44:17;7.18;;;4.13;;
11123;SDS011;5616;42.692;23.312;2023-09-08T08:46:45;2.40;;;2.20;;
11123;SDS011;5616;42.692;23.312;2023-09-08T08:49:15;5.13;;;3.80;;
11123;SDS011;5616;42.692;23.312;2023-09-08T08:51:43;3.70;;;2.70;;
11123;SDS011;5616;42.692;23.312;2023-09-08T08:54:12;3.58;;;2.95;;
11123;SDS011;5616;42.692;23.312;2023-09-08T08:56:40;4.63;;;3.20;;
11123;SDS011;5616;42.692;23.312;2023-09-08T08:59:08;3.28;;;2.80;;
11123;SDS011;5616;42.692;23.312;2023-09-08T09:01:36;3.67;;;3.00;;
11123;SDS011;5616;42.692;23.312;2023-09-08T09:04:05;3.20;;;2.70;;
11123;SDS011;5616;42.692;23.312;2023-09-08T09:06:33;3.60;;;2.60;;
11123;SDS011;5616;42.692;23.312;2023-09-08T09:09:00;4.28;;;3.08;;
11123;SDS011;5616;42.692;23.312;2023-09-08T09:11:29;3.00;;;2.30;;
11123;SDS011;5616;42.692;23.312;2023-09-08T09:13:56;5.22;;;2.33;;
11123;SDS011;5616;42.692;23.312;2023-09-08T09:16:23;2.95;;;2.40;;
11123;SDS011;5616;42.692;23.312;2023-09-08T09:18:53;2.60;;;2.38;;
11123;SDS011;5616;42.692;23.312;2023-09-08T09:21:21;3.05;;;2.30;;
11123;SDS011;5616;42.692;23.312;2023-09-08T09:23:50;2.63;;;2.42;;
11123;SDS011;5616;42.692;23.312;2023-09-08T09:26:23;2.40;;;2.20;;
11123;SDS011;5616;42.692;23.312;2023-09-08T09:28:51;2.33;;;2.13;;
11123;SDS011;5616;42.692;23.312;2023-09-08T09:31:22;3.88;;;2.10;;
11123;SDS011;5616;42.692;23.312;2023-09-08T09:34:00;2.38;;;2.17;;
11123;SDS011;5616;42.692;23.312;2023-09-08T09:36:29;3.35;;;2.30;;
11123;SDS011;5616;42.692;23.312;2023-09-08T09:38:59;5.22;;;3.47;;
11123;SDS011;5616;42.692;23.312;2023-09-08T09:41:27;5.68;;;3.35;;
11123;SDS011;5616;42.692;23.312;2023-09-08T09:43:55;6.25;;;4.63;;
11123;SDS011;5616;42.692;23.312;2023-09-08T09:46:23;13.32;;;6.93;;
11123;SDS011;5616;42.692;23.312;2023-09-08T09:48:53;8.27;;;4.50;;
11123;SDS011;5616;42.692;23.312;2023-09-08T09:51:21;13.90;;;7.45;;
11123;SDS011;5616;42.692;23.312;2023-09-08T09:53:49;9.80;;;5.25;;
11123;SDS011;5616;42.692;23.312;2023-09-08T09:56:17;4.97;;;3.47;;
11123;SDS011;5616;42.692;23.312;2023-09-08T09:58:44;6.90;;;3.88;;
11123;SDS011;5616;42.692;23.312;2023-09-08T10:01:12;8.02;;;3.90;;
11123;SDS011;5616;42.692;23.312;2023-09-08T10:03:39;8.82;;;5.47;;
11123;SDS011;5616;42.692;23.312;2023-09-08T10:06:06;4.10;;;2.95;;
11123;SDS011;5616;42.692;23.312;2023-09-08T10:08:33;3.75;;;3.10;;
11123;SDS011;5616;42.692;23.312;2023-09-08T10:11:03;2.60;;;2.30;;
11123;SDS011;5616;42.692;23.312;2023-09-08T10:13:36;5.45;;;2.67;;
11123;SDS011;5616;42.692;23.312;2023-09-08T10:16:06;3.38;;;3.05;;
11123;SDS011;5616;42.692;23.312;2023-09-08T10:18:35;6.38;;;3.78;;
11123;SDS011;5616;42.692;23.312;2023-09-08T10:21:04;4.68;;;3.55;;
11123;SDS011;5616;42.692;23.312;2023-09-08T10:23:33;7.88;;;4.70;;
11123;SDS011;5616;42.692;23.312;2023-09-08T10:26:03;7.15;;;4.43;;
11123;SDS011;5616;42.692;23.312;2023-09-08T10:28:32;5.15;;;3.42;;
11123;SDS011;5616;42.692;23.312;2023-09-08T10:31:00;4.30;;;3.20;;
11123;SDS011;5616;42.692;23.312;2023-09-08T10:33:28;3.20;;;2.90;;
11123;SDS011;5616;42.692;23.312;2023-09-08T10:35:56;4.18;;;2.80;;
11123;SDS011;5616;42.692;23.312;2023-09-08T10:38:24;3.65;;;2.70;;
11123;SDS011;5616;42.692;23.312;2023-09-08T10:40:52;5.18;;;4.05;;
11123;SDS011;5616;42.692;23.312;2023-09-08T10:43:19;3.28;;;2.75;;
11123;SDS011;5616;42.692;23.312;2023-09-08T10:45:46;4.03;;;2.58;;
11123;SDS011;5616;42.692;23.312;2023-09-08T10:48:15;5.18;;;3.60;;
11123;SDS011;5616;42.692;23.312;2023-09-08T10:50:41;3.83;;;3.00;;
11123;SDS011;5616;42.692;23.312;2023-09-08T10:53:13;4.55;;;3.05;;
11123;SDS011;5616;42.692;23.312;2023-09-08T10:55:41;5.40;;;3.17;;
11123;SDS011;5616;42.692;23.312;2023-09-08T10:58:17;5.15;;;2.85;;
11123;SDS011;5616;42.692;23.312;2023-09-08T11:00:46;7.32;;;4.03;;
11123;SDS011;5616;42.692;23.312;2023-09-08T11:03:15;4.82;;;3.38;;
11123;SDS011;5616;42.692;23.312;2023-09-08T11:05:53;2.72;;;2.53;;
11123;SDS011;5616;42.692;23.312;2023-09-08T11:08:19;3.88;;;2.38;;
11123;SDS011;5616;42.692;23.312;2023-09-08T11:10:46;2.70;;;2.50;;
11123;SDS011;5616;42.692;23.312;2023-09-08T11:13:15;3.00;;;2.42;;
11123;SDS011;5616;42.692;23.312;2023-09-08T11:15:42;5.93;;;2.78;;
11123;SDS011;5616;42.692;23.312;2023-09-08T11:18:08;3.47;;;2.35;;
11123;SDS011;5616;42.692;23.312;2023-09-08T11:20:37;3.10;;;2.63;;
11123;SDS011;5616;42.692;23.312;2023-09-08T11:23:04;3.10;;;2.80;;
11123;SDS011;5616;42.692;23.312;2023-09-08T11:25:31;3.08;;;2.78;;
11123;SDS011;5616;42.692;23.312;2023-09-08T11:27:59;3.00;;;2.65;;
11123;SDS011;5616;42.692;23.312;2023-09-08T11:30:26;2.90;;;2.60;;
11123;SDS011;5616;42.692;23.312;2023-09-08T11:32:53;3.25;;;2.60;;
11123;SDS011;5616;42.692;23.312;2023-09-08T11:35:25;3.50;;;3.05;;
11123;SDS011;5616;42.692;23.312;2023-09-08T11:37:58;2.90;;;2.55;;
11123;SDS011;5616;42.692;23.312;2023-09-08T11:40:27;3.28;;;2.50;;
11123;SDS011;5616;42.692;23.312;2023-09-08T11:42:54;3.05;;;2.53;;
11123;SDS011;5616;42.692;23.312;2023-09-08T11:45:20;3.72;;;2.40;;
11123;SDS011;5616;42.692;23.312;2023-09-08T11:47:48;5.15;;;2.85;;
11123;SDS011;5616;42.692;23.312;2023-09-08T11:50:15;3.90;;;2.40;;
11123;SDS011;5616;42.692;23.312;2023-09-08T11:52:45;2.95;;;2.65;;
11123;SDS011;5616;42.692;23.312;2023-09-08T11:55:14;3.90;;;2.90;;
11123;SDS011;5616;42.692;23.312;2023-09-08T11:57:41;3.05;;;2.75;;
11123;SDS011;5616;42.692;23.312;2023-09-08T12:00:10;2.97;;;2.67;;
11123;SDS011;5616;42.692;23.312;2023-09-08T12:02:41;3.63;;;3.08;;
11123;SDS011;5616;42.692;23.312;2023-09-08T12:05:11;3.83;;;3.10;;
11123;SDS011;5616;42.692;23.312;2023-09-08T12:07:38;3.83;;;2.78;;
11123;SDS011;5616;42.692;23.312;2023-09-08T12:10:08;6.05;;;3.53;;
11123;SDS011;5616;42.692;23.312;2023-09-08T12:12:42;3.67;;;2.90;;
11123;SDS011;5616;42.692;23.312;2023-09-08T12:15:10;4.20;;;3.05;;
11123;SDS011;5616;42.692;23.312;2023-09-08T12:17:46;4.50;;;3.13;;
11123;SDS011;5616;42.692;23.312;2023-09-08T12:20:14;5.38;;;3.38;;
11123;SDS011;5616;42.692;23.312;2023-09-08T12:22:47;3.38;;;2.60;;
11123;SDS011;5616;42.692;23.312;2023-09-08T12:25:15;5.90;;;3.90;;
11123;SDS011;5616;42.692;23.312;2023-09-08T12:27:44;4.13;;;3.30;;
11123;SDS011;5616;42.692;23.312;2023-09-08T12:30:16;3.20;;;2.90;;
11123;SDS011;5616;42.692;23.312;2023-09-08T12:32:44;5.68;;;3.22;;
11123;SDS011;5616;42.692;23.312;2023-09-08T12:35:12;2.95;;;2.75;;
11123;SDS011;5616;42.692;23.312;2023-09-08T12:37:39;4.43;;;3.40;;
11123;SDS011;5616;42.692;23.312;2023-09-08T12:40:07;8.23;;;5.10;;
11123;SDS011;5616;42.692;23.312;2023-09-08T12:42:35;3.42;;;3.13;;
11123;SDS011;5616;42.692;23.312;2023-09-08T12:45:04;14.85;;;8.77;;
11123;SDS011;5616;42.692;23.312;2023-09-08T12:47:31;6.95;;;4.47;;
11123;SDS011;5616;42.692;23.312;2023-09-08T12:49:59;3.40;;;2.80;;
11123;SDS011;5616;42.692;23.312;2023-09-08T12:52:25;4.00;;;3.13;;
11123;SDS011;5616;42.692;23.312;2023-09-08T12:54:52;4.13;;;3.72;;
11123;SDS011;5616;42.692;23.312;2023-09-08T12:57:19;3.38;;;3.00;;
11123;SDS011;5616;42.692;23.312;2023-09-08T12:59:46;2.78;;;2.58;;
11123;SDS011;5616;42.692;23.312;2023-09-08T13:02:14;3.58;;;3.00;;
11123;SDS011;5616;42.692;23.312;2023-09-08T13:04:41;2.85;;;2.53;;
11123;SDS011;5616;42.692;23.312;2023-09-08T13:07:13;2.65;;;2.45;;
11123;SDS011;5616;42.692;23.312;2023-09-08T13:09:40;3.40;;;2.92;;
11123;SDS011;5616;42.692;23.312;2023-09-08T13:12:07;3.00;;;2.70;;
11123;SDS011;5616;42.692;23.312;2023-09-08T13:14:35;3.17;;;2.83;;
11123;SDS011;5616;42.692;23.312;2023-09-08T13:17:02;3.97;;;2.55;;
11123;SDS011;5616;42.692;23.312;2023-09-08T13:19:31;3.15;;;2.55;;
11123;SDS011;5616;42.692;23.312;2023-09-08T13:21:58;3.10;;;2.47;;
11123;SDS011;5616;42.692;23.312;2023-09-08T13:24:25;3.38;;;2.70;;
11123;SDS011;5616;42.692;23.312;2023-09-08T13:26:52;2.85;;;2.30;;
11123;SDS011;5616;42.692;23.312;2023-09-08T13:29:18;2.85;;;2.58;;
11123;SDS011;5616;42.692;23.312;2023-09-08T13:31:45;3.08;;;2.50;;
11123;SDS011;5616;42.692;23.312;2023-09-08T13:34:12;2.97;;;2.30;;
11123;SDS011;5616;42.692;23.312;2023-09-08T13:36:40;2.55;;;2.35;;
11123;SDS011;5616;42.692;23.312;2023-09-08T13:39:07;2.50;;;2.28;;
11123;SDS011;5616;42.692;23.312;2023-09-08T13:41:45;3.90;;;2.63;;
11123;SDS011;5616;42.692;23.312;2023-09-08T13:44:12;2.90;;;2.60;;
11123;SDS011;5616;42.692;23.312;2023-09-08T13:46:39;3.25;;;2.70;;
11123;SDS011;5616;42.692;23.312;2023-09-08T13:49:06;3.63;;;2.53;;
11123;SDS011;5616;42.692;23.312;2023-09-08T13:51:32;2.88;;;2.65;;
11123;SDS011;5616;42.692;23.312;2023-09-08T13:54:01;2.95;;;2.30;;
11123;SDS011;5616;42.692;23.312;2023-09-08T13:56:28;2.58;;;2.20;;
11123;SDS011;5616;42.692;23.312;2023-09-08T13:58:55;2.72;;;2.53;;
11123;SDS011;5616;42.692;23.312;2023-09-08T14:01:22;2.72;;;2.53;;
11123;SDS011;5616;42.692;23.312;2023-09-08T14:03:49;3.70;;;2.33;;
11123;SDS011;5616;42.692;23.312;2023-09-08T14:06:17;2.50;;;2.30;;
11123;SDS011;5616;42.692;23.312;2023-09-08T14:08:44;3.15;;;2.65;;
11123;SDS011;5616;42.692;23.312;2023-09-08T14:11:12;3.80;;;2.65;;
11123;SDS011;5616;42.692;23.312;2023-09-08T14:13:39;2.50;;;2.30;;
11123;SDS011;5616;42.692;23.312;2023-09-08T14:16:05;2.70;;;2.50;;
11123;SDS011;5616;42.692;23.312;2023-09-08T14:18:33;3.47;;;2.70;;
11123;SDS011;5616;42.692;23.312;2023-09-08T14:20:59;3.35;;;2.70;;
11123;SDS011;5616;42.692;23.312;2023-09-08T14:23:26;3.08;;;2.50;;
11123;SDS011;5616;42.692;23.312;2023-09-08T14:25:54;2.65;;;2.45;;
11123;SDS011;5616;42.692;23.312;2023-09-08T14:28:22;4.00;;;2.65;;
11123;SDS011;5616;42.692;23.312;2023-09-08T14:30:49;2.95;;;2.42;;
11123;SDS011;5616;42.692;23.312;2023-09-08T14:33:17;2.65;;;2.30;;
11123;SDS011;5616;42.692;23.312;2023-09-08T14:35:44;4.60;;;2.80;;
11123;SDS011;5616;42.692;23.312;2023-09-08T14:38:12;3.20;;;2.90;;
11123;SDS011;5616;42.692;23.312;2023-09-08T14:40:41;3.47;;;2.33;;
11123;SDS011;5616;42.692;23.312;2023-09-08T14:43:08;3.45;;;2.80;;
11123;SDS011;5616;42.692;23.312;2023-09-08T14:45:36;4.40;;;2.47;;
11123;SDS011;5616;42.692;23.312;2023-09-08T14:48:03;3.00;;;2.75;;
11123;SDS011;5616;42.692;23.312;2023-09-08T14:50:30;2.80;;;2.50;;
11123;SDS011;5616;42.692;23.312;2023-09-08T14:52:57;2.85;;;2.58;;